Time;durP1;ratioP1;P1;durP2;ratioP2;P2;SDS_P1;SDS_P2;PMS_P1;PMS_P2;Temp;Humidity;BMP_temperature;BMP_pressure;BME280_temperature;BME280_humidity;BME280_pressure;Samples;Min_cycle;Max_cycle;Signal;HPM_P1;HPM_P2
2023/02/15 00:00:26;;;;;;;14.55;11.07;;;10.80;83.20;;;;;;6219611;23;20012;-79
2023/02/15 00:02:52;;;;;;;14.05;11.43;;;10.80;83.20;;;;;;6219784;23;20028;-80
2023/02/15 00:05:17;;;;;;;14.70;11.63;;;10.70;83.10;;;;;;6246108;23;20431;-80
2023/02/15 00:07:43;;;;;;;16.65;12.10;;;10.80;83.20;;;;;;6219353;23;20004;-78
2023/02/15 00:10:09;;;;;;;14.57;11.43;;;10.80;83.20;;;;;;6246387;23;20435;-79
2023/02/15 00:12:34;;;;;;;14.57;11.35;;;10.80;83.20;;;;;;6245667;23;20023;-80
2023/02/15 00:15:00;;;;;;;14.73;11.15;;;10.80;83.20;;;;;;6245796;23;20000;-77
2023/02/15 00:17:28;;;;;;;16.50;11.57;;;10.80;83.20;;;;;;6219133;23;20026;-79
2023/02/15 00:19:53;;;;;;;16.08;12.27;;;10.80;83.20;;;;;;6246395;23;20371;-79
2023/02/15 00:22:19;;;;;;;15.57;11.23;;;10.80;83.20;;;;;;6219126;23;20011;-79
2023/02/15 00:24:45;;;;;;;15.65;11.50;;;10.80;83.20;;;;;;6246202;23;20031;-79
2023/02/15 00:27:10;;;;;;;14.85;11.23;;;10.80;83.20;;;;;;6245662;23;20450;-78
2023/02/15 00:29:36;;;;;;;15.45;11.45;;;10.70;83.20;;;;;;6219017;23;20079;-80
2023/02/15 00:32:01;;;;;;;15.82;12.10;;;10.80;83.20;;;;;;6245681;23;20343;-79
2023/02/15 00:34:27;;;;;;;14.80;11.68;;;10.80;83.20;;;;;;6245240;23;20011;-79
2023/02/15 00:36:53;;;;;;;15.75;11.75;;;10.80;83.20;;;;;;6218571;23;20458;-79
2023/02/15 00:39:20;;;;;;;16.00;12.10;;;10.80;83.20;;;;;;6218616;23;20004;-78
2023/02/15 00:41:46;;;;;;;15.15;11.95;;;10.80;83.20;;;;;;6213328;23;20017;-79
2023/02/15 00:44:12;;;;;;;16.30;12.13;;;10.70;83.10;;;;;;6213707;23;20080;-80
2023/02/15 00:46:38;;;;;;;17.42;12.60;;;10.80;83.10;;;;;;6214991;23;20000;-79
2023/02/15 00:49:04;;;;;;;18.13;12.75;;;10.80;83.20;;;;;;6214834;23;20032;-79
2023/02/15 00:51:30;;;;;;;17.48;12.73;;;10.80;83.10;;;;;;6213829;23;20324;-78
2023/02/15 00:53:55;;;;;;;17.15;12.45;;;10.80;83.10;;;;;;6212520;23;20091;-79
2023/02/15 00:56:21;;;;;;;18.50;13.38;;;10.80;83.10;;;;;;6242610;23;20009;-80
2023/02/15 00:58:47;;;;;;;18.40;13.20;;;10.80;83.10;;;;;;6218929;23;20009;-80
2023/02/15 01:01:15;;;;;;;18.40;13.40;;;10.80;83.20;;;;;;6217721;23;20009;-80
2023/02/15 01:03:41;;;;;;;17.08;12.00;;;10.80;83.20;;;;;;6219442;23;20003;-80
2023/02/15 01:06:08;;;;;;;17.67;12.43;;;10.70;83.10;;;;;;6220695;23;20000;-79
2023/02/15 01:08:33;;;;;;;18.58;13.27;;;10.80;83.10;;;;;;6219567;23;20012;-80
2023/02/15 01:11:07;;;;;;;18.20;13.20;;;10.70;83.10;;;;;;6219107;23;20004;-79
2023/02/15 01:13:33;;;;;;;17.83;13.30;;;10.80;83.10;;;;;;6219076;23;20004;-80
2023/02/15 01:15:59;;;;;;;18.20;13.32;;;10.80;83.10;;;;;;6218953;23;20015;-80
2023/02/15 01:18:24;;;;;;;18.70;13.80;;;10.70;83.10;;;;;;6220555;23;20012;-80
2023/02/15 01:20:50;;;;;;;18.05;13.27;;;10.70;83.10;;;;;;6220391;23;20043;-79
2023/02/15 01:23:15;;;;;;;19.00;13.88;;;10.70;83.00;;;;;;6219327;23;20035;-80
2023/02/15 01:25:41;;;;;;;18.55;13.20;;;10.70;83.00;;;;;;6219457;23;20131;-80
2023/02/15 01:28:07;;;;;;;19.05;13.13;;;10.70;83.00;;;;;;6220905;23;20055;-80
2023/02/15 01:30:33;;;;;;;17.38;12.80;;;10.70;83.00;;;;;;6219584;23;20076;-80
2023/02/15 01:33:00;;;;;;;18.13;13.60;;;10.70;83.00;;;;;;6218425;23;20001;-80
2023/02/15 01:35:26;;;;;;;18.58;13.60;;;10.70;83.00;;;;;;6217730;23;20436;-80
2023/02/15 01:37:52;;;;;;;18.83;13.60;;;10.70;83.00;;;;;;6218235;23;20008;-80
2023/02/15 01:40:19;;;;;;;18.35;13.20;;;10.70;83.00;;;;;;6220180;23;20001;-80
2023/02/15 01:42:44;;;;;;;17.90;12.73;;;10.70;83.00;;;;;;6250203;23;20435;-80
2023/02/15 01:45:25;;;;;;;19.25;13.55;;;10.70;83.00;;;;;;6225407;23;20020;-80
2023/02/15 01:48:05;;;;;;;18.85;13.68;;;10.70;83.00;;;;;;6225221;23;20004;-80
2023/02/15 01:50:37;;;;;;;18.48;13.52;;;10.70;83.00;;;;;;6251919;23;20072;-80
2023/02/15 01:53:25;;;;;;;17.85;12.82;;;10.70;83.00;;;;;;6251843;23;20008;-79
2023/02/15 01:55:57;;;;;;;18.33;12.88;;;10.70;83.00;;;;;;6223950;23;20075;-80
2023/02/15 01:58:26;;;;;;;18.58;12.75;;;10.70;82.90;;;;;;6251416;23;20011;-80
2023/02/15 02:00:52;;;;;;;18.02;13.02;;;10.70;83.00;;;;;;6224287;23;20015;-80
2023/02/15 02:03:25;;;;;;;17.17;12.77;;;10.70;82.90;;;;;;6250973;23;20026;-80
2023/02/15 02:05:50;;;;;;;18.95;13.23;;;10.80;83.00;;;;;;6250400;23;19996;-80
2023/02/15 02:08:16;;;;;;;18.95;13.40;;;10.70;83.00;;;;;;6223503;23;20011;-80
2023/02/15 02:10:41;;;;;;;17.55;13.15;;;10.70;82.90;;;;;;6222448;23;20007;-80
2023/02/15 02:13:07;;;;;;;17.77;12.63;;;10.70;82.90;;;;;;6250384;23;20000;-79
2023/02/15 02:15:58;;;;;;;17.38;12.65;;;10.70;82.90;;;;;;6249808;23;20477;-80
2023/02/15 02:18:56;;;;;;;18.67;12.80;;;10.70;82.90;;;;;;6249921;23;20435;-80
2023/02/15 02:21:43;;;;;;;16.05;11.55;;;10.70;82.90;;;;;;6249358;23;20054;-80
2023/02/15 02:24:28;;;;;;;18.42;13.20;;;10.70;82.90;;;;;;6249800;23;20007;-80
2023/02/15 02:27:14;;;;;;;18.85;13.63;;;10.70;82.90;;;;;;6247523;23;20028;-80
2023/02/15 02:29:59;;;;;;;17.05;11.95;;;10.70;82.90;;;;;;6220073;23;20006;-80
2023/02/15 02:33:07;;;;;;;17.90;13.00;;;10.70;82.90;;;;;;6222185;23;20019;-80
2023/02/15 02:35:48;;;;;;;16.13;12.25;;;10.70;82.90;;;;;;6222118;23;20078;-79
2023/02/15 02:38:25;;;;;;;17.02;12.07;;;10.70;82.90;;;;;;6248665;23;20466;-80
2023/02/15 02:41:15;;;;;;;16.20;11.88;;;10.70;82.80;;;;;;6216438;23;20070;-80
2023/02/15 02:50:21;;;;;;;17.98;12.77;;;10.70;82.80;;;;;;6193113;23;20027;-79
2023/02/15 02:52:49;;;;;;;16.45;11.93;;;10.70;82.80;;;;;;6217564;23;20016;-80
2023/02/15 02:55:40;;;;;;;17.52;12.27;;;10.70;82.80;;;;;;6216060;23;20083;-80
2023/02/15 02:58:19;;;;;;;17.23;12.25;;;10.70;82.80;;;;;;6217585;23;20485;-80
2023/02/15 03:01:05;;;;;;;16.55;12.32;;;10.70;82.70;;;;;;6216060;23;20008;-79
2023/02/15 03:04:00;;;;;;;16.08;11.70;;;10.70;82.70;;;;;;6217278;23;20483;-80
2023/02/15 03:06:36;;;;;;;16.73;12.05;;;10.70;82.70;;;;;;6215646;23;20432;-80
2023/02/15 03:09:14;;;;;;;15.93;11.52;;;10.70;82.70;;;;;;6217118;23;20139;-79
2023/02/15 03:11:41;;;;;;;17.13;11.60;;;10.70;82.70;;;;;;6215037;23;20011;-79
2023/02/15 03:14:06;;;;;;;15.93;11.75;;;10.70;82.70;;;;;;6215052;23;20051;-80
2023/02/15 03:16:33;;;;;;;16.88;12.15;;;10.60;82.60;;;;;;6214812;23;20008;-80
2023/02/15 03:19:09;;;;;;;16.10;11.48;;;10.70;82.70;;;;;;6215340;23;20008;-79
2023/02/15 03:21:38;;;;;;;16.08;11.65;;;10.70;83.20;;;;;;6216895;23;20043;-80
2023/02/15 03:24:17;;;;;;;15.20;10.93;;;10.70;82.70;;;;;;6217207;23;20012;-80
2023/02/15 03:26:46;;;;;;;16.52;11.68;;;10.70;82.70;;;;;;6216484;23;20032;-80
2023/02/15 03:29:15;;;;;;;16.58;11.65;;;10.70;82.70;;;;;;6215232;23;20405;-80
2023/02/15 03:31:45;;;;;;;15.18;10.77;;;10.70;82.70;;;;;;6215581;23;20376;-80
2023/02/15 03:34:15;;;;;;;14.70;10.50;;;10.70;82.70;;;;;;6216910;23;20063;-79
2023/02/15 03:36:56;;;;;;;15.32;10.93;;;10.70;82.60;;;;;;6214097;23;20075;-79
2023/02/15 03:39:28;;;;;;;;;;;10.70;82.60;;;;;;6240430;23;20067;-80
2023/02/15 03:42:22;;;;;;;16.25;10.63;;;10.60;82.50;;;;;;6238779;23;19947;-80
2023/02/15 03:45:10;;;;;;;14.77;10.73;;;10.70;82.60;;;;;;6246342;23;20023;-79
2023/02/15 03:47:39;;;;;;;14.80;10.88;;;10.70;82.60;;;;;;6218950;23;20053;-79
2023/02/15 03:52:59;;;;;;;14.38;10.50;;;10.60;82.40;;;;;;6246691;23;20143;-80
2023/02/15 03:55:25;;;;;;;13.93;10.18;;;10.70;82.50;;;;;;6246063;23;20004;-78
2023/02/15 04:03:36;;;;;;;14.95;10.52;;;10.60;82.50;;;;;;6246528;23;20643;-80
2023/02/15 04:06:03;;;;;;;14.32;10.43;;;10.60;82.40;;;;;;6245806;23;20046;-80
2023/02/15 04:11:12;;;;;;;14.27;10.50;;;10.60;82.30;;;;;;6245881;23;20082;-80
2023/02/15 04:13:38;;;;;;;14.25;10.32;;;10.60;82.30;;;;;;6245526;23;20713;-80
2023/02/15 04:16:04;;;;;;;14.40;10.45;;;10.60;82.30;;;;;;6250666;23;20020;-80
2023/02/15 04:26:54;;;;;;;13.90;10.13;;;10.60;82.30;;;;;;6249950;23;20054;-80
2023/02/15 04:29:21;;;;;;;14.45;10.27;;;10.60;82.30;;;;;;6223473;23;20008;-83
2023/02/15 04:31:47;;;;;;;14.65;10.45;;;10.60;82.20;;;;;;6216532;23;20012;-78
2023/02/15 04:34:13;;;;;;;13.80;9.95;;;10.60;82.20;;;;;;6215303;23;20024;-78
2023/02/15 04:36:38;;;;;;;14.90;10.30;;;10.60;82.20;;;;;;6238215;23;20023;-77
2023/02/15 04:39:05;;;;;;;14.23;10.15;;;10.60;82.60;;;;;;6213078;23;20347;-78
2023/02/15 04:41:31;;;;;;;12.95;9.88;;;10.60;82.10;;;;;;6208543;23;20068;-78
2023/02/15 04:43:57;;;;;;;12.82;9.63;;;10.60;82.20;;;;;;6208006;23;20032;-81
2023/02/15 04:46:22;;;;;;;13.40;10.35;;;10.60;82.20;;;;;;6208142;23;20058;-76
2023/02/15 04:48:48;;;;;;;15.93;10.55;;;10.60;82.20;;;;;;6204796;23;20044;-75
2023/02/15 04:51:14;;;;;;;14.32;9.50;;;10.60;82.20;;;;;;6206162;23;20009;-75
2023/02/15 04:53:39;;;;;;;13.23;9.90;;;10.60;82.20;;;;;;6203692;23;20028;-75
2023/02/15 04:56:05;;;;;;;13.82;10.32;;;10.60;82.20;;;;;;6205441;23;20044;-75
2023/02/15 04:58:30;;;;;;;14.68;10.63;;;10.60;82.30;;;;;;6211255;23;20031;-80
2023/02/15 05:00:57;;;;;;;13.57;10.23;;;10.60;82.10;;;;;;6213087;23;20001;-81
2023/02/15 05:03:22;;;;;;;15.18;11.23;;;10.60;82.10;;;;;;6213919;23;20507;-83
2023/02/15 05:05:48;;;;;;;13.55;10.55;;;10.60;82.00;;;;;;6210634;23;20012;-79
2023/02/15 05:08:14;;;;;;;14.07;10.35;;;10.60;81.90;;;;;;6210209;23;20447;-79
2023/02/15 05:10:39;;;;;;;13.82;10.25;;;10.60;81.90;;;;;;6210216;23;20008;-77
2023/02/15 05:13:05;;;;;;;13.63;10.70;;;10.60;81.80;;;;;;6210447;23;20005;-77
2023/02/15 05:15:30;;;;;;;13.63;9.90;;;10.60;81.90;;;;;;6207779;23;20008;-77
2023/02/15 05:17:56;;;;;;;14.25;10.23;;;10.60;81.90;;;;;;6207525;23;20009;-77
2023/02/15 05:20:21;;;;;;;13.95;10.63;;;10.50;81.90;;;;;;6232596;23;20054;-77
2023/02/15 05:22:47;;;;;;;14.35;10.80;;;10.60;81.90;;;;;;6232745;23;20066;-77
2023/02/15 05:30:40;;;;;;;14.07;10.40;;;10.60;81.90;;;;;;6208688;23;20199;-76
2023/02/15 05:33:07;;;;;;;14.98;11.05;;;10.60;81.90;;;;;;6231692;23;20077;-77
2023/02/15 05:35:33;;;;;;;14.63;10.85;;;10.60;81.70;;;;;;6232194;23;20012;-77
2023/02/15 05:37:59;;;;;;;14.75;11.02;;;10.60;81.80;;;;;;6207528;23;20424;-76
2023/02/15 05:40:24;;;;;;;14.63;10.95;;;10.60;81.90;;;;;;6208599;23;20005;-76
2023/02/15 05:42:50;;;;;;;13.57;10.13;;;10.60;81.90;;;;;;6236425;23;20004;-77
2023/02/15 05:45:15;;;;;;;13.18;10.40;;;10.50;81.80;;;;;;6209058;23;20040;-76
2023/02/15 05:47:41;;;;;;;13.60;10.88;;;10.60;81.80;;;;;;6208298;23;20403;-76
2023/02/15 05:50:08;;;;;;;13.95;10.82;;;10.60;81.80;;;;;;6236422;23;20012;-76
2023/02/15 05:52:34;;;;;;;14.38;10.77;;;10.60;81.80;;;;;;6210754;23;20011;-76
2023/02/15 05:55:00;;;;;;;13.25;10.52;;;10.60;81.70;;;;;;6211158;23;20066;-77
2023/02/15 05:57:26;;;;;;;13.77;10.45;;;10.50;81.70;;;;;;6211230;23;20447;-75
2023/02/15 05:59:52;;;;;;;14.13;10.30;;;10.50;81.70;;;;;;6212964;23;20008;-77
2023/02/15 06:02:17;;;;;;;13.65;10.63;;;10.60;81.80;;;;;;6242246;23;20481;-79
2023/02/15 06:04:43;;;;;;;13.90;10.32;;;10.60;81.80;;;;;;6215780;23;20354;-80
2023/02/15 06:07:08;;;;;;;14.93;11.25;;;10.50;81.80;;;;;;6215040;23;19996;-76
2023/02/15 06:09:34;;;;;;;14.95;10.95;;;10.60;81.80;;;;;;6241201;23;20011;-77
2023/02/15 06:11:59;;;;;;;14.95;11.40;;;10.50;81.70;;;;;;6242167;23;20016;-78
2023/02/15 06:14:25;;;;;;;14.50;10.95;;;10.60;81.80;;;;;;6216111;23;20019;-79
2023/02/15 06:16:50;;;;;;;13.52;10.68;;;10.50;81.70;;;;;;6216730;23;20012;-80
2023/02/15 06:19:16;;;;;;;13.32;10.27;;;10.50;81.70;;;;;;6216484;23;20510;-79
2023/02/15 06:21:42;;;;;;;13.30;10.23;;;10.50;81.60;;;;;;6216814;23;20007;-79
2023/02/15 06:24:08;;;;;;;13.68;10.60;;;10.50;81.70;;;;;;6216143;23;20004;-81
2023/02/15 06:26:34;;;;;;;13.10;10.02;;;10.50;81.70;;;;;;6243350;23;20386;-80
2023/02/15 06:28:59;;;;;;;13.85;10.15;;;10.50;81.60;;;;;;6216407;23;19996;-78
2023/02/15 06:31:25;;;;;;;13.73;10.35;;;10.60;81.70;;;;;;6242211;23;20008;-79
2023/02/15 06:33:50;;;;;;;15.25;11.27;;;10.50;80.80;;;;;;6214973;23;20090;-77
2023/02/15 06:36:16;;;;;;;13.88;10.75;;;10.50;80.80;;;;;;6215659;23;20058;-79
2023/02/15 06:38:41;;;;;;;15.82;11.80;;;10.60;80.20;;;;;;6246140;23;20111;-80
2023/02/15 06:41:07;;;;;;;14.40;11.70;;;10.50;79.80;;;;;;6215559;23;20008;-80
2023/02/15 06:43:33;;;;;;;14.90;11.48;;;10.50;79.50;;;;;;6217345;23;20075;-79
2023/02/15 06:46:00;;;;;;;13.05;10.73;;;10.50;79.80;;;;;;6239685;23;20075;-78
2023/02/15 06:48:25;;;;;;;15.50;10.85;;;10.50;80.20;;;;;;6237621;23;20013;-80
2023/02/15 06:50:51;;;;;;;12.98;11.00;;;10.60;80.50;;;;;;6236608;23;20012;-80
2023/02/15 06:53:16;;;;;;;15.05;11.10;;;10.50;80.40;;;;;;6211043;23;20123;-80
2023/02/15 06:55:42;;;;;;;14.07;10.63;;;10.50;80.40;;;;;;6212452;23;20083;-80
2023/02/15 06:58:07;;;;;;;15.23;11.20;;;10.50;80.60;;;;;;6211870;23;20004;-80
2023/02/15 07:00:33;;;;;;;12.73;10.15;;;10.60;80.60;;;;;;6211107;23;20032;-80
2023/02/15 07:02:58;;;;;;;14.07;11.10;;;10.60;80.80;;;;;;6210689;23;20024;-80
2023/02/15 07:05:30;;;;;;;13.55;10.63;;;10.60;80.80;;;;;;6212996;23;20000;-80
2023/02/15 07:07:56;;;;;;;15.80;12.07;;;10.60;80.80;;;;;;6213200;23;20443;-80
2023/02/15 07:10:22;;;;;;;15.25;11.00;;;10.60;80.80;;;;;;6238160;23;20012;-80
2023/02/15 07:12:47;;;;;;;13.93;10.65;;;10.60;80.60;;;;;;6214159;23;20005;-80
2023/02/15 07:15:15;;;;;;;15.02;11.00;;;10.60;80.60;;;;;;6212261;23;20058;-80
2023/02/15 07:17:42;;;;;;;15.27;11.07;;;10.60;80.60;;;;;;6214201;23;20000;-80
2023/02/15 07:20:14;;;;;;;14.32;10.80;;;10.60;80.60;;;;;;6214418;23;20001;-80
2023/02/15 07:22:40;;;;;;;15.52;11.13;;;10.60;80.60;;;;;;6214351;23;20004;-80
2023/02/15 07:25:07;;;;;;;14.32;11.13;;;10.70;80.60;;;;;;6213693;23;20448;-80
2023/02/15 07:27:33;;;;;;;15.05;10.95;;;10.80;80.70;;;;;;6238753;23;20004;-81
2023/02/15 07:29:59;;;;;;;14.98;10.90;;;10.70;80.70;;;;;;6222832;23;20011;-80
2023/02/15 07:32:31;;;;;;;15.02;11.48;;;10.60;80.60;;;;;;6221328;23;20005;-81
2023/02/15 07:34:57;;;;;;;;;;;10.60;80.50;;;;;;6222498;23;20006;-81
2023/02/15 07:37:22;;;;;;;16.58;11.57;;;10.60;80.60;;;;;;6222567;23;20392;-80
2023/02/15 07:39:47;;;;;;;16.85;11.68;;;10.60;80.60;;;;;;6220771;23;20462;-81
2023/02/15 07:42:13;;;;;;;17.73;12.02;;;10.60;80.70;;;;;;6241542;23;20004;-81
2023/02/15 07:44:39;;;;;;;17.25;12.27;;;10.60;80.70;;;;;;6220604;23;20000;-81
2023/02/15 07:47:04;;;;;;;16.95;12.38;;;10.60;80.80;;;;;;6223190;23;20419;-80
2023/02/15 07:49:29;;;;;;;15.38;11.13;;;10.70;80.80;;;;;;6223201;23;20004;-81
2023/02/15 07:51:55;;;;;;;16.95;12.45;;;10.60;80.80;;;;;;6250645;23;20008;-81
2023/02/15 07:54:20;;;;;;;17.40;12.35;;;10.60;80.90;;;;;;6222365;23;20000;-81
2023/02/15 07:56:46;;;;;;;18.38;13.02;;;10.60;80.90;;;;;;6248962;23;20007;-81
2023/02/15 07:59:11;;;;;;;17.92;12.70;;;10.60;80.90;;;;;;6246401;23;20053;-81
2023/02/15 08:01:38;;;;;;;17.05;12.10;;;10.60;80.70;;;;;;6244589;23;20022;-81
2023/02/15 08:04:06;;;;;;;17.98;12.30;;;10.60;80.70;;;;;;6217384;23;20007;-80
2023/02/15 08:06:34;;;;;;;15.70;11.75;;;10.70;80.70;;;;;;6221533;23;20004;-80
2023/02/15 08:09:00;;;;;;;16.88;11.70;;;10.70;80.70;;;;;;6248213;23;20334;-81
2023/02/15 08:14:29;;;;;;;16.40;11.48;;;10.70;80.40;;;;;;6258971;23;20004;-81
2023/02/15 08:16:56;;;;;;;17.95;11.73;;;10.80;80.10;;;;;;6193144;23;20008;-81
2023/02/15 08:19:24;;;;;;;16.63;11.00;;;10.90;80.00;;;;;;6224307;23;20012;-80
2023/02/15 08:21:52;;;;;;;16.35;11.85;;;10.90;79.70;;;;;;6224350;23;20007;-80
2023/02/15 08:24:20;;;;;;;16.85;11.23;;;11.00;79.30;;;;;;6223989;23;20000;-81
2023/02/15 08:26:47;;;;;;;16.65;11.63;;;11.10;79.40;;;;;;6223084;23;20023;-81
2023/02/15 08:29:15;;;;;;;18.05;12.07;;;11.10;79.30;;;;;;6222424;23;20004;-81
2023/02/15 08:31:41;;;;;;;16.00;11.13;;;11.20;79.20;;;;;;6222659;23;20023;-81
2023/02/15 08:34:11;;;;;;;15.77;11.13;;;11.30;79.10;;;;;;6221973;23;20008;-81
2023/02/15 08:36:36;;;;;;;14.55;10.75;;;11.30;79.10;;;;;;6222583;23;20004;-80
2023/02/15 08:39:04;;;;;;;15.55;11.40;;;11.30;78.90;;;;;;6250272;23;20431;-80
2023/02/15 08:41:38;;;;;;;15.75;11.20;;;11.40;78.80;;;;;;6216756;23;20013;-80
2023/02/15 08:44:06;;;;;;;16.52;11.38;;;11.40;78.80;;;;;;6217116;23;20005;-80
2023/02/15 08:46:37;;;;;;;15.45;11.18;;;11.50;78.80;;;;;;6215764;23;19997;-80
2023/02/15 08:49:03;;;;;;;14.70;11.13;;;11.50;78.70;;;;;;6218541;23;20000;-80
2023/02/15 08:51:38;;;;;;;15.38;10.95;;;11.60;78.60;;;;;;6216588;23;20005;-80
2023/02/15 08:54:11;;;;;;;14.35;10.18;;;11.50;78.40;;;;;;6215406;23;20009;-80
2023/02/15 08:56:39;;;;;;;14.95;10.43;;;11.60;78.20;;;;;;6212243;23;20012;-80
2023/02/15 08:59:06;;;;;;;15.38;11.27;;;11.70;78.00;;;;;;6214019;23;20020;-80
2023/02/15 09:01:34;;;;;;;15.25;10.88;;;11.70;78.00;;;;;;6214694;23;20343;-80
2023/02/15 09:04:01;;;;;;;15.45;10.88;;;11.70;78.00;;;;;;6217117;23;20009;-80
2023/02/15 09:06:29;;;;;;;15.48;11.27;;;11.70;77.80;;;;;;6217414;23;20001;-81
2023/02/15 09:08:55;;;;;;;14.63;10.23;;;11.80;78.10;;;;;;6215124;23;20190;-80
2023/02/15 09:11:29;;;;;;;14.30;10.75;;;11.80;77.80;;;;;;6214443;23;20012;-81
2023/02/15 09:14:07;;;;;;;14.13;9.98;;;11.80;77.60;;;;;;6216479;23;20004;-81
2023/02/15 09:16:35;;;;;;;13.75;9.77;;;11.80;77.50;;;;;;6214597;23;20011;-80
2023/02/15 09:19:01;;;;;;;14.45;10.35;;;11.90;77.60;;;;;;6214823;23;20307;-81
2023/02/15 09:21:28;;;;;;;13.30;9.80;;;11.90;77.60;;;;;;6239990;23;20008;-80
2023/02/15 09:24:02;;;;;;;15.20;10.73;;;11.90;77.30;;;;;;6214120;23;20084;-80
2023/02/15 09:26:30;;;;;;;13.50;9.77;;;11.90;77.50;;;;;;6214790;23;20026;-79
2023/02/15 09:28:59;;;;;;;14.30;10.38;;;12.00;78.30;;;;;;6218531;23;20005;-80
2023/02/15 09:31:27;;;;;;;13.80;9.73;;;12.00;77.30;;;;;;6218083;23;20032;-80
2023/02/15 09:33:53;;;;;;;13.65;9.93;;;12.00;77.60;;;;;;6216258;23;20023;-80
2023/02/15 09:36:25;;;;;;;12.98;9.57;;;12.00;77.60;;;;;;6218429;23;20076;-80
2023/02/15 09:39:07;;;;;;;13.70;9.68;;;12.00;77.90;;;;;;6217097;23;20055;-80
2023/02/15 09:42:01;;;;;;;14.93;10.35;;;12.00;78.30;;;;;;6215326;23;20012;-80
2023/02/15 09:44:51;;;;;;;12.63;9.23;;;12.00;78.10;;;;;;6216012;23;20197;-80
2023/02/15 09:47:33;;;;;;;14.15;9.77;;;12.00;78.00;;;;;;6213936;23;20009;-80
2023/02/15 09:50:39;;;;;;;13.85;10.05;;;12.00;78.10;;;;;;6215187;23;20008;-80
2023/02/15 09:53:38;;;;;;;13.57;9.60;;;12.00;77.80;;;;;;6213729;23;20174;-80
2023/02/15 09:56:18;;;;;;;12.93;9.13;;;12.10;78.10;;;;;;6217090;23;20001;-80
2023/02/15 09:58:56;;;;;;;13.90;9.50;;;12.10;78.30;;;;;;6214906;23;19997;-80
2023/02/15 10:01:49;;;;;;;13.25;9.05;;;12.10;78.10;;;;;;6216974;23;20015;-80
2023/02/15 10:04:39;;;;;;;12.70;9.45;;;12.10;78.00;;;;;;6215998;23;20376;-80
2023/02/15 10:07:19;;;;;;;12.70;8.70;;;12.10;78.20;;;;;;6217825;23;20001;-80
2023/02/15 10:10:09;;;;;;;13.60;9.57;;;12.20;77.60;;;;;;6215174;23;20008;-80
2023/02/15 10:12:44;;;;;;;13.05;9.27;;;12.20;77.40;;;;;;6214604;23;20054;-80
2023/02/15 10:15:28;;;;;;;11.93;8.68;;;12.20;77.50;;;;;;6215636;23;20035;-78
2023/02/15 10:18:12;;;;;;;12.07;8.60;;;12.20;77.60;;;;;;6216444;23;20009;-80
2023/02/15 10:21:21;;;;;;;13.13;8.80;;;12.30;77.40;;;;;;6214510;23;20339;-80
2023/02/15 10:24:15;;;;;;;13.20;9.32;;;12.30;77.20;;;;;;6212537;23;20435;-80
2023/02/15 10:26:46;;;;;;;12.90;8.68;;;12.30;77.50;;;;;;6213364;23;20043;-80
2023/02/15 10:29:36;;;;;;;12.68;8.85;;;12.30;77.30;;;;;;6215674;23;20009;-81
2023/02/15 10:32:24;;;;;;;12.15;8.43;;;12.30;77.30;;;;;;6214495;23;20008;-80
2023/02/15 10:35:13;;;;;;;11.52;8.43;;;12.40;77.90;;;;;;6214163;23;20008;-80
2023/02/15 10:37:53;;;;;;;11.98;8.38;;;12.40;78.20;;;;;;6214420;23;20005;-80
2023/02/15 10:40:51;;;;;;;11.60;8.68;;;12.40;77.80;;;;;;6216632;23;20028;-80
2023/02/15 10:43:17;;;;;;;11.60;8.45;;;12.40;78.00;;;;;;6246899;23;20450;-79
2023/02/15 10:45:54;;;;;;;10.85;7.50;;;12.50;77.70;;;;;;6224383;23;20012;-80
2023/02/15 10:48:39;;;;;;;12.23;8.65;;;12.50;77.80;;;;;;6250835;23;20074;-80
2023/02/15 10:51:12;;;;;;;11.55;8.35;;;12.50;77.30;;;;;;6223617;23;20014;-80
2023/02/15 10:54:15;;;;;;;11.35;8.27;;;12.50;77.10;;;;;;6223107;23;20043;-81
2023/02/15 10:57:02;;;;;;;11.90;7.90;;;12.50;76.80;;;;;;6222288;23;20003;-80
2023/02/15 10:59:59;;;;;;;9.88;7.40;;;12.60;76.50;;;;;;6222605;23;20427;-80
2023/02/15 11:02:46;;;;;;;11.50;7.63;;;12.60;76.70;;;;;;6222804;23;20058;-80
2023/02/15 11:05:39;;;;;;;11.00;8.05;;;12.60;76.60;;;;;;6248971;23;20562;-81
2023/02/15 11:08:09;;;;;;;10.48;7.63;;;12.60;76.60;;;;;;6221675;23;20004;-80
2023/02/15 11:10:53;;;;;;;10.20;7.50;;;12.60;76.80;;;;;;6248890;23;20000;-80
2023/02/15 11:13:22;;;;;;;10.80;7.70;;;12.60;76.50;;;;;;6221806;23;20006;-80
2023/02/15 11:15:50;;;;;;;10.80;7.72;;;12.60;76.50;;;;;;6221411;23;20049;-81
2023/02/15 11:18:26;;;;;;;10.85;7.80;;;12.60;76.50;;;;;;6221513;23;20011;-81
2023/02/15 11:20:56;;;;;;;10.38;7.55;;;12.70;76.50;;;;;;6221130;23;20007;-80
2023/02/15 11:23:23;;;;;;;10.23;7.38;;;12.70;76.60;;;;;;6248148;23;19996;-81
2023/02/15 11:26:00;;;;;;;10.30;7.15;;;12.70;76.40;;;;;;6246477;23;20000;-79
2023/02/15 11:28:39;;;;;;;10.77;7.43;;;12.70;76.70;;;;;;6218245;23;20008;-80
2023/02/15 11:31:25;;;;;;;10.10;7.28;;;12.70;76.50;;;;;;6218001;23;20008;-80
2023/02/15 11:34:12;;;;;;;10.25;7.10;;;12.70;76.70;;;;;;6225325;23;20008;-80
2023/02/15 11:36:40;;;;;;;10.38;7.55;;;12.70;76.40;;;;;;6224377;23;20051;-81
2023/02/15 11:39:12;;;;;;;10.77;6.82;;;12.70;76.20;;;;;;6250890;23;20008;-80
2023/02/15 11:41:43;;;;;;;10.20;6.90;;;12.70;76.20;;;;;;6250352;23;20004;-80
2023/02/15 11:44:27;;;;;;;10.53;6.97;;;12.80;76.10;;;;;;6223173;23;19996;-80
2023/02/15 11:46:53;;;;;;;9.52;6.80;;;12.80;76.30;;;;;;6249138;23;20250;-80
2023/02/15 11:49:33;;;;;;;10.25;7.35;;;12.80;76.20;;;;;;6221884;23;20424;-80
2023/02/15 11:52:03;;;;;;;10.17;7.03;;;12.80;76.00;;;;;;6249294;23;20008;-80
2023/02/15 11:54:33;;;;;;;10.82;7.30;;;12.80;76.20;;;;;;6222632;23;20234;-80
2023/02/15 11:57:22;;;;;;;10.75;7.47;;;12.80;76.00;;;;;;6221440;23;20008;-80
2023/02/15 12:00:17;;;;;;;9.98;6.85;;;12.80;76.00;;;;;;6221866;23;20008;-80
2023/02/15 12:02:49;;;;;;;10.15;7.30;;;12.90;76.00;;;;;;6211759;23;20008;-80
2023/02/15 12:05:22;;;;;;;10.15;6.82;;;12.80;76.10;;;;;;6247253;23;20024;-80
2023/02/15 12:08:14;;;;;;;10.20;7.20;;;12.90;75.90;;;;;;6247800;23;20000;-80
2023/02/15 12:10:53;;;;;;;10.55;7.30;;;12.90;75.80;;;;;;6220415;23;20091;-80
2023/02/15 12:13:19;;;;;;;10.55;7.32;;;12.90;75.90;;;;;;6220355;23;20376;-80
2023/02/15 12:15:48;;;;;;;10.32;6.80;;;12.80;76.10;;;;;;6246643;23;20049;-80
2023/02/15 12:18:30;;;;;;;10.18;6.90;;;12.90;75.90;;;;;;6219402;23;20007;-80
2023/02/15 12:21:00;;;;;;;9.23;6.57;;;12.80;76.00;;;;;;6219968;23;20626;-81
2023/02/15 12:23:28;;;;;;;9.82;6.78;;;12.80;76.30;;;;;;6219795;23;20458;-80
2023/02/15 12:25:56;;;;;;;9.20;6.53;;;12.80;76.20;;;;;;6219175;23;20001;-80
2023/02/15 12:28:21;;;;;;;10.32;6.90;;;12.80;76.40;;;;;;6219101;23;20403;-80
2023/02/15 12:30:47;;;;;;;9.25;6.40;;;12.80;76.50;;;;;;6219386;23;20004;-80
2023/02/15 12:33:33;;;;;;;10.20;6.68;;;12.80;76.60;;;;;;6219066;23;20000;-80
2023/02/15 12:36:15;;;;;;;9.43;6.57;;;12.70;76.70;;;;;;6245296;23;20454;-80
2023/02/15 12:38:40;;;;;;;;;;;12.70;77.10;;;;;;6246951;23;20000;-79
2023/02/15 12:41:26;;;;;;;9.57;6.45;;;12.60;76.60;;;;;;6245491;23;20348;-79
2023/02/15 12:44:18;;;;;;;10.82;7.05;;;12.70;76.70;;;;;;6243587;23;20458;-80
2023/02/15 12:47:04;;;;;;;10.60;6.72;;;12.70;76.90;;;;;;6217936;23;20519;-80
2023/02/15 12:49:35;;;;;;;9.70;6.43;;;12.70;76.80;;;;;;6218624;23;20000;-80
2023/02/15 12:52:22;;;;;;;10.18;6.57;;;12.60;76.90;;;;;;6245089;23;20011;-80
2023/02/15 12:54:51;;;;;;;10.63;7.53;;;12.60;77.00;;;;;;6244506;23;20008;-80
2023/02/15 12:57:31;;;;;;;9.48;6.80;;;12.60;77.00;;;;;;6217314;23;20008;-80
2023/02/15 13:00:00;;;;;;;9.40;6.57;;;12.60;77.10;;;;;;6217676;23;20569;-80
2023/02/15 13:02:30;;;;;;;10.20;6.93;;;12.60;77.00;;;;;;6245507;23;20008;-80
2023/02/15 13:04:57;;;;;;;10.23;7.07;;;12.60;77.10;;;;;;6220175;23;20447;-80
2023/02/15 13:07:29;;;;;;;10.05;6.45;;;12.60;77.00;;;;;;6219789;23;20008;-80
2023/02/15 13:09:54;;;;;;;9.85;6.90;;;12.60;77.00;;;;;;6246408;23;20445;-80
2023/02/15 13:12:30;;;;;;;9.30;6.60;;;12.60;77.00;;;;;;6219029;23;20036;-80
2023/02/15 13:14:56;;;;;;;8.95;6.15;;;12.60;77.10;;;;;;6219693;23;20004;-80
2023/02/15 13:17:29;;;;;;;9.75;7.07;;;12.60;77.10;;;;;;6219015;23;20008;-79
2023/02/15 13:19:58;;;;;;;10.25;6.72;;;12.60;77.20;;;;;;6245970;23;20004;-80
2023/02/15 13:22:41;;;;;;;9.57;6.95;;;12.60;77.20;;;;;;6219165;23;20478;-80
2023/02/15 13:25:22;;;;;;;10.18;7.05;;;12.50;77.20;;;;;;6218861;23;20378;-79
2023/02/15 13:28:01;;;;;;;10.60;6.57;;;12.50;77.10;;;;;;6245171;23;20083;-79